sensor_id;sensor_type;location;lat;lon;timestamp;P1;durP1;ratioP1;P2;durP2;ratioP2
11548;SDS011;61444;59.472;18.306;2022-12-05T00:01:14;6.47;;;3.80;;
11548;SDS011;61444;59.472;18.306;2022-12-05T00:03:23;5.57;;;3.33;;
11548;SDS011;61444;59.472;18.306;2022-12-05T00:05:32;6.60;;;3.57;;
11548;SDS011;61444;59.472;18.306;2022-12-05T00:07:41;5.40;;;3.17;;
11548;SDS011;61444;59.472;18.306;2022-12-05T00:09:50;4.87;;;3.13;;
11548;SDS011;61444;59.472;18.306;2022-12-05T00:12:00;6.37;;;3.83;;
11548;SDS011;61444;59.472;18.306;2022-12-05T00:14:10;6.40;;;3.37;;
11548;SDS011;61444;59.472;18.306;2022-12-05T00:16:20;5.97;;;3.40;;
11548;SDS011;61444;59.472;18.306;2022-12-05T00:18:29;6.33;;;3.03;;
11548;SDS011;61444;59.472;18.306;2022-12-05T00:20:43;6.97;;;3.73;;
11548;SDS011;61444;59.472;18.306;2022-12-05T00:22:52;5.90;;;3.50;;
11548;SDS011;61444;59.472;18.306;2022-12-05T00:25:02;5.77;;;3.30;;
11548;SDS011;61444;59.472;18.306;2022-12-05T00:27:11;7.00;;;3.67;;
11548;SDS011;61444;59.472;18.306;2022-12-05T00:29:23;6.03;;;3.57;;
11548;SDS011;61444;59.472;18.306;2022-12-05T00:31:32;6.23;;;3.70;;
11548;SDS011;61444;59.472;18.306;2022-12-05T00:33:41;6.03;;;3.43;;
11548;SDS011;61444;59.472;18.306;2022-12-05T00:35:49;7.07;;;3.63;;
11548;SDS011;61444;59.472;18.306;2022-12-05T00:37:58;5.93;;;3.23;;
11548;SDS011;61444;59.472;18.306;2022-12-05T00:40:08;5.90;;;3.37;;
11548;SDS011;61444;59.472;18.306;2022-12-05T00:42:16;5.37;;;3.13;;
11548;SDS011;61444;59.472;18.306;2022-12-05T00:44:27;5.30;;;3.33;;
11548;SDS011;61444;59.472;18.306;2022-12-05T00:46:36;5.93;;;3.30;;
11548;SDS011;61444;59.472;18.306;2022-12-05T00:48:45;4.97;;;2.90;;
11548;SDS011;61444;59.472;18.306;2022-12-05T00:50:58;6.77;;;3.33;;
11548;SDS011;61444;59.472;18.306;2022-12-05T00:53:08;6.47;;;3.43;;
11548;SDS011;61444;59.472;18.306;2022-12-05T00:55:17;5.03;;;3.10;;
11548;SDS011;61444;59.472;18.306;2022-12-05T00:57:26;5.43;;;3.27;;
11548;SDS011;61444;59.472;18.306;2022-12-05T00:59:37;5.60;;;3.13;;
11548;SDS011;61444;59.472;18.306;2022-12-05T01:01:48;5.47;;;3.00;;
11548;SDS011;61444;59.472;18.306;2022-12-05T01:03:58;4.33;;;3.03;;
11548;SDS011;61444;59.472;18.306;2022-12-05T01:06:07;5.70;;;3.10;;
11548;SDS011;61444;59.472;18.306;2022-12-05T01:08:16;5.53;;;2.90;;
11548;SDS011;61444;59.472;18.306;2022-12-05T01:10:26;6.40;;;3.40;;
11548;SDS011;61444;59.472;18.306;2022-12-05T01:12:35;5.07;;;2.97;;
11548;SDS011;61444;59.472;18.306;2022-12-05T01:14:45;4.97;;;2.93;;
11548;SDS011;61444;59.472;18.306;2022-12-05T01:16:54;5.43;;;3.20;;
11548;SDS011;61444;59.472;18.306;2022-12-05T01:19:04;6.83;;;3.40;;
11548;SDS011;61444;59.472;18.306;2022-12-05T01:21:13;5.47;;;3.40;;
11548;SDS011;61444;59.472;18.306;2022-12-05T01:23:22;5.70;;;3.13;;
11548;SDS011;61444;59.472;18.306;2022-12-05T01:25:31;5.43;;;2.90;;
11548;SDS011;61444;59.472;18.306;2022-12-05T01:27:40;6.47;;;3.40;;
11548;SDS011;61444;59.472;18.306;2022-12-05T01:29:50;7.40;;;3.53;;
11548;SDS011;61444;59.472;18.306;2022-12-05T01:31:59;5.23;;;3.30;;
11548;SDS011;61444;59.472;18.306;2022-12-05T01:34:09;5.53;;;3.13;;
11548;SDS011;61444;59.472;18.306;2022-12-05T01:36:19;5.10;;;2.97;;
11548;SDS011;61444;59.472;18.306;2022-12-05T01:38:28;4.70;;;2.83;;
11548;SDS011;61444;59.472;18.306;2022-12-05T01:40:37;5.33;;;3.00;;
11548;SDS011;61444;59.472;18.306;2022-12-05T01:42:46;4.70;;;3.03;;
11548;SDS011;61444;59.472;18.306;2022-12-05T01:45:01;4.07;;;2.70;;
11548;SDS011;61444;59.472;18.306;2022-12-05T01:47:11;4.90;;;2.90;;
11548;SDS011;61444;59.472;18.306;2022-12-05T01:49:24;3.97;;;2.67;;
11548;SDS011;61444;59.472;18.306;2022-12-05T01:51:35;4.60;;;2.90;;
11548;SDS011;61444;59.472;18.306;2022-12-05T01:53:46;6.90;;;3.57;;
11548;SDS011;61444;59.472;18.306;2022-12-05T01:55:55;4.37;;;2.67;;
11548;SDS011;61444;59.472;18.306;2022-12-05T01:58:04;6.57;;;3.23;;
11548;SDS011;61444;59.472;18.306;2022-12-05T02:00:17;6.47;;;3.27;;
11548;SDS011;61444;59.472;18.306;2022-12-05T02:02:27;5.47;;;3.03;;
11548;SDS011;61444;59.472;18.306;2022-12-05T02:04:37;6.37;;;3.30;;
11548;SDS011;61444;59.472;18.306;2022-12-05T02:06:48;6.40;;;3.00;;
11548;SDS011;61444;59.472;18.306;2022-12-05T02:08:57;6.27;;;3.40;;
11548;SDS011;61444;59.472;18.306;2022-12-05T02:11:06;5.77;;;3.43;;
11548;SDS011;61444;59.472;18.306;2022-12-05T02:13:25;5.40;;;3.40;;
11548;SDS011;61444;59.472;18.306;2022-12-05T02:15:39;6.10;;;2.97;;
11548;SDS011;61444;59.472;18.306;2022-12-05T02:17:53;4.50;;;2.93;;
11548;SDS011;61444;59.472;18.306;2022-12-05T02:20:11;6.27;;;3.37;;
11548;SDS011;61444;59.472;18.306;2022-12-05T02:22:34;5.07;;;2.57;;
11548;SDS011;61444;59.472;18.306;2022-12-05T02:24:51;5.60;;;2.43;;
11548;SDS011;61444;59.472;18.306;2022-12-05T02:27:08;6.63;;;3.20;;
11548;SDS011;61444;59.472;18.306;2022-12-05T02:31:59;5.80;;;2.90;;
11548;SDS011;61444;59.472;18.306;2022-12-05T02:34:14;4.60;;;2.80;;
11548;SDS011;61444;59.472;18.306;2022-12-05T02:36:25;4.40;;;2.50;;
11548;SDS011;61444;59.472;18.306;2022-12-05T02:38:35;4.90;;;2.63;;
11548;SDS011;61444;59.472;18.306;2022-12-05T02:40:49;5.50;;;3.10;;
11548;SDS011;61444;59.472;18.306;2022-12-05T02:43:02;5.23;;;3.10;;
11548;SDS011;61444;59.472;18.306;2022-12-05T02:45:14;5.30;;;3.07;;
11548;SDS011;61444;59.472;18.306;2022-12-05T02:47:26;5.80;;;3.10;;
11548;SDS011;61444;59.472;18.306;2022-12-05T02:49:36;4.17;;;2.80;;
11548;SDS011;61444;59.472;18.306;2022-12-05T02:51:46;5.93;;;3.30;;
11548;SDS011;61444;59.472;18.306;2022-12-05T02:53:56;5.77;;;2.73;;
11548;SDS011;61444;59.472;18.306;2022-12-05T02:56:05;6.70;;;2.67;;
11548;SDS011;61444;59.472;18.306;2022-12-05T02:58:15;5.10;;;2.97;;
11548;SDS011;61444;59.472;18.306;2022-12-05T03:00:25;6.77;;;2.80;;
11548;SDS011;61444;59.472;18.306;2022-12-05T03:02:37;6.87;;;3.37;;
11548;SDS011;61444;59.472;18.306;2022-12-05T03:04:47;8.87;;;3.30;;
11548;SDS011;61444;59.472;18.306;2022-12-05T03:06:57;4.87;;;3.13;;
11548;SDS011;61444;59.472;18.306;2022-12-05T03:09:08;5.30;;;3.10;;
11548;SDS011;61444;59.472;18.306;2022-12-05T03:11:19;5.13;;;3.00;;
11548;SDS011;61444;59.472;18.306;2022-12-05T03:13:29;5.03;;;2.80;;
11548;SDS011;61444;59.472;18.306;2022-12-05T03:15:39;4.80;;;3.10;;
11548;SDS011;61444;59.472;18.306;2022-12-05T03:17:52;4.93;;;2.67;;
11548;SDS011;61444;59.472;18.306;2022-12-05T03:20:02;4.67;;;2.77;;
11548;SDS011;61444;59.472;18.306;2022-12-05T03:22:14;5.23;;;2.53;;
11548;SDS011;61444;59.472;18.306;2022-12-05T03:24:24;5.60;;;3.00;;
11548;SDS011;61444;59.472;18.306;2022-12-05T03:26:36;6.50;;;2.93;;
11548;SDS011;61444;59.472;18.306;2022-12-05T03:28:53;4.73;;;2.50;;
11548;SDS011;61444;59.472;18.306;2022-12-05T03:31:05;5.37;;;2.57;;
11548;SDS011;61444;59.472;18.306;2022-12-05T03:33:19;4.73;;;2.97;;
11548;SDS011;61444;59.472;18.306;2022-12-05T03:35:32;5.33;;;3.27;;
11548;SDS011;61444;59.472;18.306;2022-12-05T03:37:44;4.03;;;2.20;;
11548;SDS011;61444;59.472;18.306;2022-12-05T03:39:58;4.50;;;2.70;;
11548;SDS011;61444;59.472;18.306;2022-12-05T03:42:10;5.17;;;2.83;;
11548;SDS011;61444;59.472;18.306;2022-12-05T03:44:22;4.83;;;2.53;;
11548;SDS011;61444;59.472;18.306;2022-12-05T03:46:31;5.37;;;2.90;;
11548;SDS011;61444;59.472;18.306;2022-12-05T03:48:45;3.93;;;2.47;;
11548;SDS011;61444;59.472;18.306;2022-12-05T03:50:58;5.03;;;2.93;;
11548;SDS011;61444;59.472;18.306;2022-12-05T03:53:09;5.37;;;2.87;;
11548;SDS011;61444;59.472;18.306;2022-12-05T03:55:27;3.60;;;2.50;;
11548;SDS011;61444;59.472;18.306;2022-12-05T03:57:39;4.60;;;2.70;;
11548;SDS011;61444;59.472;18.306;2022-12-05T03:59:51;3.90;;;2.50;;
11548;SDS011;61444;59.472;18.306;2022-12-05T04:02:04;6.43;;;2.90;;
11548;SDS011;61444;59.472;18.306;2022-12-05T04:04:17;6.07;;;2.60;;
11548;SDS011;61444;59.472;18.306;2022-12-05T04:06:29;4.47;;;2.57;;
11548;SDS011;61444;59.472;18.306;2022-12-05T04:08:40;5.90;;;2.77;;
11548;SDS011;61444;59.472;18.306;2022-12-05T04:10:52;2.97;;;2.23;;
11548;SDS011;61444;59.472;18.306;2022-12-05T04:13:01;4.83;;;2.80;;
11548;SDS011;61444;59.472;18.306;2022-12-05T04:15:23;4.67;;;3.00;;
11548;SDS011;61444;59.472;18.306;2022-12-05T04:17:56;6.23;;;2.67;;
11548;SDS011;61444;59.472;18.306;2022-12-05T04:20:08;4.93;;;3.00;;
11548;SDS011;61444;59.472;18.306;2022-12-05T04:22:36;4.13;;;2.40;;
11548;SDS011;61444;59.472;18.306;2022-12-05T04:24:45;5.93;;;2.63;;
11548;SDS011;61444;59.472;18.306;2022-12-05T04:27:17;5.20;;;3.00;;
11548;SDS011;61444;59.472;18.306;2022-12-05T04:29:29;4.33;;;2.57;;
11548;SDS011;61444;59.472;18.306;2022-12-05T04:31:39;4.10;;;2.30;;
11548;SDS011;61444;59.472;18.306;2022-12-05T04:33:50;5.57;;;2.83;;
11548;SDS011;61444;59.472;18.306;2022-12-05T04:36:03;4.73;;;3.00;;
11548;SDS011;61444;59.472;18.306;2022-12-05T04:38:14;3.90;;;2.20;;
11548;SDS011;61444;59.472;18.306;2022-12-05T04:40:25;4.17;;;2.47;;
11548;SDS011;61444;59.472;18.306;2022-12-05T04:42:36;4.03;;;2.47;;
11548;SDS011;61444;59.472;18.306;2022-12-05T04:44:49;4.87;;;2.93;;
11548;SDS011;61444;59.472;18.306;2022-12-05T04:46:59;4.83;;;2.77;;
11548;SDS011;61444;59.472;18.306;2022-12-05T04:49:10;5.47;;;3.00;;
11548;SDS011;61444;59.472;18.306;2022-12-05T04:51:23;4.10;;;2.70;;
11548;SDS011;61444;59.472;18.306;2022-12-05T04:53:33;4.13;;;2.60;;
11548;SDS011;61444;59.472;18.306;2022-12-05T04:55:44;6.03;;;2.73;;
11548;SDS011;61444;59.472;18.306;2022-12-05T04:57:59;4.67;;;2.70;;
11548;SDS011;61444;59.472;18.306;2022-12-05T05:00:10;4.70;;;2.60;;
11548;SDS011;61444;59.472;18.306;2022-12-05T05:02:20;4.60;;;2.70;;
11548;SDS011;61444;59.472;18.306;2022-12-05T05:04:33;5.07;;;2.77;;
11548;SDS011;61444;59.472;18.306;2022-12-05T05:06:44;5.23;;;3.13;;
11548;SDS011;61444;59.472;18.306;2022-12-05T05:08:54;4.47;;;2.57;;
11548;SDS011;61444;59.472;18.306;2022-12-05T05:11:05;5.27;;;2.57;;
11548;SDS011;61444;59.472;18.306;2022-12-05T05:13:17;11.07;;;3.17;;
11548;SDS011;61444;59.472;18.306;2022-12-05T05:15:26;4.73;;;2.53;;
11548;SDS011;61444;59.472;18.306;2022-12-05T05:17:34;5.30;;;2.87;;
11548;SDS011;61444;59.472;18.306;2022-12-05T05:19:43;5.27;;;2.53;;
11548;SDS011;61444;59.472;18.306;2022-12-05T05:21:53;4.67;;;2.83;;
11548;SDS011;61444;59.472;18.306;2022-12-05T05:24:03;5.47;;;2.63;;
11548;SDS011;61444;59.472;18.306;2022-12-05T05:26:12;4.77;;;2.80;;
11548;SDS011;61444;59.472;18.306;2022-12-05T05:28:21;5.47;;;3.23;;
11548;SDS011;61444;59.472;18.306;2022-12-05T05:30:30;5.80;;;3.30;;
11548;SDS011;61444;59.472;18.306;2022-12-05T05:32:39;5.00;;;2.70;;
11548;SDS011;61444;59.472;18.306;2022-12-05T05:34:48;4.17;;;2.83;;
11548;SDS011;61444;59.472;18.306;2022-12-05T05:36:59;5.93;;;2.73;;
11548;SDS011;61444;59.472;18.306;2022-12-05T05:39:10;5.77;;;3.07;;
11548;SDS011;61444;59.472;18.306;2022-12-05T05:41:20;4.53;;;2.70;;
11548;SDS011;61444;59.472;18.306;2022-12-05T05:43:30;4.47;;;2.80;;
11548;SDS011;61444;59.472;18.306;2022-12-05T05:45:40;4.43;;;2.63;;
11548;SDS011;61444;59.472;18.306;2022-12-05T05:47:49;3.97;;;2.63;;
11548;SDS011;61444;59.472;18.306;2022-12-05T05:49:57;6.83;;;3.30;;
11548;SDS011;61444;59.472;18.306;2022-12-05T05:52:08;7.20;;;4.37;;
11548;SDS011;61444;59.472;18.306;2022-12-05T05:54:17;9.73;;;6.03;;
11548;SDS011;61444;59.472;18.306;2022-12-05T05:56:27;6.23;;;3.93;;
11548;SDS011;61444;59.472;18.306;2022-12-05T05:58:36;7.07;;;3.43;;
11548;SDS011;61444;59.472;18.306;2022-12-05T06:00:45;5.63;;;3.10;;
11548;SDS011;61444;59.472;18.306;2022-12-05T06:02:54;5.90;;;3.30;;
11548;SDS011;61444;59.472;18.306;2022-12-05T06:05:03;8.53;;;3.30;;
11548;SDS011;61444;59.472;18.306;2022-12-05T06:07:14;5.87;;;3.50;;
11548;SDS011;61444;59.472;18.306;2022-12-05T06:09:23;8.10;;;3.63;;
11548;SDS011;61444;59.472;18.306;2022-12-05T06:11:32;5.87;;;3.37;;
11548;SDS011;61444;59.472;18.306;2022-12-05T06:13:42;5.97;;;3.70;;
11548;SDS011;61444;59.472;18.306;2022-12-05T06:15:51;6.07;;;3.40;;
11548;SDS011;61444;59.472;18.306;2022-12-05T06:18:00;6.93;;;3.00;;
11548;SDS011;61444;59.472;18.306;2022-12-05T06:20:09;4.67;;;3.27;;
11548;SDS011;61444;59.472;18.306;2022-12-05T06:22:20;6.77;;;3.63;;
11548;SDS011;61444;59.472;18.306;2022-12-05T06:24:29;6.67;;;3.67;;
11548;SDS011;61444;59.472;18.306;2022-12-05T06:26:39;6.23;;;3.70;;
11548;SDS011;61444;59.472;18.306;2022-12-05T06:28:49;6.00;;;3.53;;
11548;SDS011;61444;59.472;18.306;2022-12-05T06:30:58;6.97;;;3.90;;
11548;SDS011;61444;59.472;18.306;2022-12-05T06:33:08;4.10;;;2.87;;
11548;SDS011;61444;59.472;18.306;2022-12-05T06:35:18;8.33;;;4.10;;
11548;SDS011;61444;59.472;18.306;2022-12-05T06:37:28;6.33;;;3.67;;
11548;SDS011;61444;59.472;18.306;2022-12-05T06:39:38;8.07;;;4.00;;
11548;SDS011;61444;59.472;18.306;2022-12-05T06:41:47;6.47;;;3.27;;
11548;SDS011;61444;59.472;18.306;2022-12-05T06:43:56;5.47;;;3.27;;
11548;SDS011;61444;59.472;18.306;2022-12-05T06:46:08;4.87;;;3.37;;
11548;SDS011;61444;59.472;18.306;2022-12-05T06:48:18;6.83;;;3.60;;
11548;SDS011;61444;59.472;18.306;2022-12-05T06:50:27;5.60;;;2.90;;
11548;SDS011;61444;59.472;18.306;2022-12-05T06:52:38;6.73;;;3.73;;
11548;SDS011;61444;59.472;18.306;2022-12-05T06:54:46;5.60;;;3.50;;
11548;SDS011;61444;59.472;18.306;2022-12-05T06:56:56;6.07;;;3.23;;
11548;SDS011;61444;59.472;18.306;2022-12-05T06:59:05;5.23;;;3.20;;
11548;SDS011;61444;59.472;18.306;2022-12-05T07:01:14;7.00;;;3.43;;
11548;SDS011;61444;59.472;18.306;2022-12-05T07:03:40;6.90;;;3.43;;
11548;SDS011;61444;59.472;18.306;2022-12-05T07:05:50;6.23;;;3.30;;
11548;SDS011;61444;59.472;18.306;2022-12-05T07:08:00;6.20;;;3.63;;
11548;SDS011;61444;59.472;18.306;2022-12-05T07:10:09;6.23;;;3.60;;
11548;SDS011;61444;59.472;18.306;2022-12-05T07:12:18;8.47;;;3.60;;
11548;SDS011;61444;59.472;18.306;2022-12-05T07:14:27;5.70;;;3.87;;
11548;SDS011;61444;59.472;18.306;2022-12-05T07:16:53;6.90;;;3.90;;
11548;SDS011;61444;59.472;18.306;2022-12-05T07:19:02;6.60;;;3.83;;
11548;SDS011;61444;59.472;18.306;2022-12-05T07:21:12;5.23;;;3.33;;
11548;SDS011;61444;59.472;18.306;2022-12-05T07:23:24;6.37;;;3.57;;
11548;SDS011;61444;59.472;18.306;2022-12-05T07:25:33;5.73;;;3.33;;
11548;SDS011;61444;59.472;18.306;2022-12-05T07:27:42;6.33;;;4.10;;
11548;SDS011;61444;59.472;18.306;2022-12-05T07:29:51;6.57;;;3.67;;
11548;SDS011;61444;59.472;18.306;2022-12-05T07:32:01;7.53;;;3.80;;
11548;SDS011;61444;59.472;18.306;2022-12-05T07:34:10;7.40;;;4.17;;
11548;SDS011;61444;59.472;18.306;2022-12-05T07:36:20;7.83;;;4.67;;
11548;SDS011;61444;59.472;18.306;2022-12-05T07:38:31;7.30;;;4.17;;
11548;SDS011;61444;59.472;18.306;2022-12-05T07:40:40;7.27;;;4.13;;
11548;SDS011;61444;59.472;18.306;2022-12-05T07:42:50;6.20;;;3.70;;
11548;SDS011;61444;59.472;18.306;2022-12-05T07:45:01;7.87;;;4.20;;
11548;SDS011;61444;59.472;18.306;2022-12-05T07:47:10;9.17;;;4.03;;
11548;SDS011;61444;59.472;18.306;2022-12-05T07:49:19;7.63;;;4.03;;
11548;SDS011;61444;59.472;18.306;2022-12-05T07:51:28;6.40;;;4.17;;
11548;SDS011;61444;59.472;18.306;2022-12-05T07:53:38;7.37;;;3.77;;
11548;SDS011;61444;59.472;18.306;2022-12-05T07:55:50;6.93;;;3.73;;
11548;SDS011;61444;59.472;18.306;2022-12-05T07:57:58;6.93;;;4.00;;
11548;SDS011;61444;59.472;18.306;2022-12-05T08:00:07;8.37;;;4.70;;
11548;SDS011;61444;59.472;18.306;2022-12-05T08:02:16;10.50;;;5.70;;
11548;SDS011;61444;59.472;18.306;2022-12-05T08:04:25;10.33;;;5.90;;
11548;SDS011;61444;59.472;18.306;2022-12-05T08:06:34;9.70;;;5.20;;
11548;SDS011;61444;59.472;18.306;2022-12-05T08:08:45;10.53;;;4.37;;
11548;SDS011;61444;59.472;18.306;2022-12-05T08:10:55;8.13;;;4.80;;
11548;SDS011;61444;59.472;18.306;2022-12-05T08:13:04;10.23;;;4.37;;
11548;SDS011;61444;59.472;18.306;2022-12-05T08:15:15;7.60;;;4.20;;
11548;SDS011;61444;59.472;18.306;2022-12-05T08:17:23;11.23;;;4.43;;
11548;SDS011;61444;59.472;18.306;2022-12-05T08:19:32;7.80;;;4.27;;
11548;SDS011;61444;59.472;18.306;2022-12-05T08:21:41;9.20;;;5.17;;
11548;SDS011;61444;59.472;18.306;2022-12-05T08:23:52;13.27;;;5.60;;
11548;SDS011;61444;59.472;18.306;2022-12-05T08:26:01;15.33;;;6.13;;
11548;SDS011;61444;59.472;18.306;2022-12-05T08:28:10;12.97;;;5.70;;
11548;SDS011;61444;59.472;18.306;2022-12-05T08:30:19;12.23;;;6.83;;
11548;SDS011;61444;59.472;18.306;2022-12-05T08:32:28;10.70;;;5.70;;
11548;SDS011;61444;59.472;18.306;2022-12-05T08:34:37;10.47;;;6.83;;
11548;SDS011;61444;59.472;18.306;2022-12-05T08:36:46;10.30;;;6.83;;
11548;SDS011;61444;59.472;18.306;2022-12-05T08:38:57;10.23;;;5.73;;
11548;SDS011;61444;59.472;18.306;2022-12-05T08:41:07;10.13;;;5.43;;
11548;SDS011;61444;59.472;18.306;2022-12-05T08:43:18;12.37;;;5.50;;
11548;SDS011;61444;59.472;18.306;2022-12-05T08:45:28;9.03;;;5.10;;
11548;SDS011;61444;59.472;18.306;2022-12-05T08:47:37;7.93;;;4.93;;
11548;SDS011;61444;59.472;18.306;2022-12-05T08:49:46;7.73;;;4.87;;
11548;SDS011;61444;59.472;18.306;2022-12-05T08:51:54;10.47;;;4.93;;
11548;SDS011;61444;59.472;18.306;2022-12-05T08:54:05;8.50;;;4.83;;
11548;SDS011;61444;59.472;18.306;2022-12-05T08:56:14;8.03;;;4.60;;
11548;SDS011;61444;59.472;18.306;2022-12-05T08:58:32;8.13;;;4.50;;
11548;SDS011;61444;59.472;18.306;2022-12-05T09:00:40;8.67;;;5.00;;
11548;SDS011;61444;59.472;18.306;2022-12-05T09:02:49;10.00;;;5.10;;
11548;SDS011;61444;59.472;18.306;2022-12-05T09:04:59;8.97;;;5.20;;
11548;SDS011;61444;59.472;18.306;2022-12-05T09:07:28;9.90;;;5.30;;
11548;SDS011;61444;59.472;18.306;2022-12-05T09:09:39;11.07;;;5.83;;
11548;SDS011;61444;59.472;18.306;2022-12-05T09:11:48;12.27;;;5.53;;
11548;SDS011;61444;59.472;18.306;2022-12-05T09:13:57;8.37;;;4.03;;
11548;SDS011;61444;59.472;18.306;2022-12-05T09:16:07;9.30;;;4.93;;
11548;SDS011;61444;59.472;18.306;2022-12-05T09:18:16;8.33;;;5.00;;
11548;SDS011;61444;59.472;18.306;2022-12-05T09:20:25;10.97;;;5.63;;
11548;SDS011;61444;59.472;18.306;2022-12-05T09:22:34;9.30;;;5.17;;
11548;SDS011;61444;59.472;18.306;2022-12-05T09:24:44;10.57;;;4.90;;
11548;SDS011;61444;59.472;18.306;2022-12-05T09:26:53;8.07;;;4.83;;
11548;SDS011;61444;59.472;18.306;2022-12-05T09:29:02;10.15;;;5.50;;
11548;SDS011;61444;59.472;18.306;2022-12-05T09:31:11;9.80;;;5.13;;
11548;SDS011;61444;59.472;18.306;2022-12-05T09:33:21;6.77;;;4.40;;
11548;SDS011;61444;59.472;18.306;2022-12-05T09:35:31;7.40;;;4.23;;
11548;SDS011;61444;59.472;18.306;2022-12-05T09:37:40;6.83;;;4.30;;
11548;SDS011;61444;59.472;18.306;2022-12-05T09:39:50;7.33;;;4.60;;
11548;SDS011;61444;59.472;18.306;2022-12-05T09:44:28;6.00;;;3.87;;
11548;SDS011;61444;59.472;18.306;2022-12-05T09:46:42;6.60;;;4.20;;
11548;SDS011;61444;59.472;18.306;2022-12-05T09:48:55;9.73;;;4.60;;
11548;SDS011;61444;59.472;18.306;2022-12-05T09:51:06;7.50;;;4.10;;
11548;SDS011;61444;59.472;18.306;2022-12-05T09:53:20;9.57;;;4.57;;
11548;SDS011;61444;59.472;18.306;2022-12-05T09:55:37;8.33;;;4.93;;
11548;SDS011;61444;59.472;18.306;2022-12-05T09:57:48;7.13;;;4.43;;
11548;SDS011;61444;59.472;18.306;2022-12-05T09:59:58;6.50;;;4.60;;
11548;SDS011;61444;59.472;18.306;2022-12-05T10:02:11;8.03;;;5.00;;
11548;SDS011;61444;59.472;18.306;2022-12-05T10:04:35;5.87;;;4.13;;
11548;SDS011;61444;59.472;18.306;2022-12-05T10:06:53;10.80;;;4.60;;
11548;SDS011;61444;59.472;18.306;2022-12-05T10:09:07;7.13;;;4.43;;
11548;SDS011;61444;59.472;18.306;2022-12-05T10:11:22;6.13;;;3.77;;
11548;SDS011;61444;59.472;18.306;2022-12-05T10:13:39;7.00;;;4.57;;
11548;SDS011;61444;59.472;18.306;2022-12-05T10:15:50;6.30;;;4.40;;
11548;SDS011;61444;59.472;18.306;2022-12-05T10:18:04;6.77;;;4.20;;
11548;SDS011;61444;59.472;18.306;2022-12-05T10:20:17;7.00;;;4.07;;
11548;SDS011;61444;59.472;18.306;2022-12-05T10:22:27;6.87;;;3.97;;
11548;SDS011;61444;59.472;18.306;2022-12-05T10:24:39;8.07;;;4.10;;
11548;SDS011;61444;59.472;18.306;2022-12-05T10:26:50;8.20;;;5.30;;
11548;SDS011;61444;59.472;18.306;2022-12-05T10:29:02;11.13;;;4.70;;
11548;SDS011;61444;59.472;18.306;2022-12-05T10:31:16;9.07;;;5.33;;
11548;SDS011;61444;59.472;18.306;2022-12-05T10:33:26;10.20;;;5.93;;
11548;SDS011;61444;59.472;18.306;2022-12-05T10:35:37;9.87;;;5.53;;
11548;SDS011;61444;59.472;18.306;2022-12-05T10:37:47;7.87;;;4.53;;
11548;SDS011;61444;59.472;18.306;2022-12-05T10:39:58;10.63;;;4.70;;
11548;SDS011;61444;59.472;18.306;2022-12-05T10:42:11;6.73;;;4.10;;
11548;SDS011;61444;59.472;18.306;2022-12-05T10:44:21;5.20;;;3.90;;
11548;SDS011;61444;59.472;18.306;2022-12-05T10:46:30;6.87;;;4.30;;
11548;SDS011;61444;59.472;18.306;2022-12-05T10:48:39;7.27;;;4.30;;
11548;SDS011;61444;59.472;18.306;2022-12-05T10:50:49;6.03;;;3.73;;
11548;SDS011;61444;59.472;18.306;2022-12-05T10:52:59;7.13;;;3.77;;
11548;SDS011;61444;59.472;18.306;2022-12-05T10:55:12;5.90;;;3.67;;
11548;SDS011;61444;59.472;18.306;2022-12-05T10:57:23;5.53;;;3.63;;
11548;SDS011;61444;59.472;18.306;2022-12-05T10:59:43;6.50;;;4.43;;
11548;SDS011;61444;59.472;18.306;2022-12-05T11:01:53;7.93;;;4.40;;
11548;SDS011;61444;59.472;18.306;2022-12-05T11:04:04;7.73;;;4.93;;
11548;SDS011;61444;59.472;18.306;2022-12-05T11:06:23;10.33;;;4.67;;
11548;SDS011;61444;59.472;18.306;2022-12-05T11:08:32;8.00;;;5.00;;
11548;SDS011;61444;59.472;18.306;2022-12-05T11:11:02;8.17;;;5.23;;
11548;SDS011;61444;59.472;18.306;2022-12-05T11:13:14;8.27;;;4.83;;
11548;SDS011;61444;59.472;18.306;2022-12-05T11:15:24;7.77;;;5.00;;
11548;SDS011;61444;59.472;18.306;2022-12-05T11:17:35;9.67;;;6.10;;
11548;SDS011;61444;59.472;18.306;2022-12-05T11:19:44;7.83;;;5.50;;
11548;SDS011;61444;59.472;18.306;2022-12-05T11:21:53;10.73;;;5.40;;
11548;SDS011;61444;59.472;18.306;2022-12-05T11:24:10;14.07;;;6.07;;
11548;SDS011;61444;59.472;18.306;2022-12-05T11:26:32;10.47;;;6.10;;
11548;SDS011;61444;59.472;18.306;2022-12-05T11:28:43;7.97;;;4.50;;
11548;SDS011;61444;59.472;18.306;2022-12-05T11:30:55;9.77;;;4.47;;
11548;SDS011;61444;59.472;18.306;2022-12-05T11:33:10;6.63;;;4.23;;
11548;SDS011;61444;59.472;18.306;2022-12-05T11:35:21;6.97;;;4.47;;
11548;SDS011;61444;59.472;18.306;2022-12-05T11:37:34;8.93;;;4.23;;
11548;SDS011;61444;59.472;18.306;2022-12-05T11:39:44;8.77;;;4.13;;
11548;SDS011;61444;59.472;18.306;2022-12-05T11:42:05;6.07;;;3.77;;
11548;SDS011;61444;59.472;18.306;2022-12-05T11:44:25;6.07;;;3.67;;
11548;SDS011;61444;59.472;18.306;2022-12-05T11:46:41;7.10;;;4.17;;
11548;SDS011;61444;59.472;18.306;2022-12-05T11:48:59;8.10;;;4.20;;
11548;SDS011;61444;59.472;18.306;2022-12-05T11:51:18;9.60;;;3.93;;
11548;SDS011;61444;59.472;18.306;2022-12-05T11:53:34;7.07;;;4.00;;
11548;SDS011;61444;59.472;18.306;2022-12-05T11:55:47;6.37;;;3.60;;
11548;SDS011;61444;59.472;18.306;2022-12-05T11:58:02;6.67;;;4.33;;
11548;SDS011;61444;59.472;18.306;2022-12-05T12:00:20;10.57;;;4.43;;
11548;SDS011;61444;59.472;18.306;2022-12-05T12:02:33;5.60;;;3.77;;
11548;SDS011;61444;59.472;18.306;2022-12-05T12:04:48;10.03;;;4.70;;
11548;SDS011;61444;59.472;18.306;2022-12-05T12:07:01;6.87;;;4.60;;
11548;SDS011;61444;59.472;18.306;2022-12-05T12:09:20;7.10;;;3.67;;
11548;SDS011;61444;59.472;18.306;2022-12-05T12:11:33;9.27;;;4.53;;
11548;SDS011;61444;59.472;18.306;2022-12-05T12:13:49;6.23;;;3.90;;
11548;SDS011;61444;59.472;18.306;2022-12-05T12:16:06;7.37;;;4.13;;
11548;SDS011;61444;59.472;18.306;2022-12-05T12:18:23;9.53;;;4.33;;
11548;SDS011;61444;59.472;18.306;2022-12-05T12:20:37;6.93;;;4.17;;
11548;SDS011;61444;59.472;18.306;2022-12-05T12:25:15;7.40;;;4.33;;
11548;SDS011;61444;59.472;18.306;2022-12-05T12:27:31;10.40;;;5.57;;
11548;SDS011;61444;59.472;18.306;2022-12-05T12:29:47;9.00;;;5.13;;
11548;SDS011;61444;59.472;18.306;2022-12-05T12:32:05;6.83;;;3.87;;
11548;SDS011;61444;59.472;18.306;2022-12-05T12:34:23;6.63;;;3.63;;
11548;SDS011;61444;59.472;18.306;2022-12-05T12:36:35;7.80;;;4.10;;
11548;SDS011;61444;59.472;18.306;2022-12-05T12:38:59;8.90;;;4.77;;
11548;SDS011;61444;59.472;18.306;2022-12-05T12:41:12;9.83;;;5.07;;
11548;SDS011;61444;59.472;18.306;2022-12-05T12:43:27;9.53;;;4.50;;
11548;SDS011;61444;59.472;18.306;2022-12-05T12:48:34;7.70;;;3.63;;
11548;SDS011;61444;59.472;18.306;2022-12-05T12:50:48;9.80;;;4.43;;
11548;SDS011;61444;59.472;18.306;2022-12-05T12:53:06;9.07;;;4.93;;
11548;SDS011;61444;59.472;18.306;2022-12-05T12:55:19;8.57;;;4.60;;
11548;SDS011;61444;59.472;18.306;2022-12-05T12:57:31;8.80;;;5.27;;
11548;SDS011;61444;59.472;18.306;2022-12-05T12:59:46;9.57;;;6.13;;
11548;SDS011;61444;59.472;18.306;2022-12-05T13:01:57;7.07;;;5.17;;
11548;SDS011;61444;59.472;18.306;2022-12-05T13:04:12;7.47;;;5.47;;
11548;SDS011;61444;59.472;18.306;2022-12-05T13:06:23;7.83;;;4.57;;
11548;SDS011;61444;59.472;18.306;2022-12-05T13:08:34;8.40;;;4.37;;
11548;SDS011;61444;59.472;18.306;2022-12-05T13:10:46;11.67;;;6.83;;